createdAt,value
2022-08-25T00:00:43.837Z,26.19
2022-08-25T00:05:47.794Z,26.51
2022-08-25T00:11:00.213Z,26.67
2022-08-25T00:16:06.686Z,26.82
2022-08-25T00:21:09.819Z,26.84
2022-08-25T00:26:13.923Z,26.90
2022-08-25T00:31:20.556Z,26.94
2022-08-25T00:36:23.429Z,26.79
2022-08-25T00:41:26.870Z,26.96
2022-08-25T00:46:33.100Z,27.11
2022-08-25T00:51:45.033Z,27.18
2022-08-25T00:56:48.837Z,27.25
2022-08-25T01:01:54.101Z,27.27
2022-08-25T01:06:59.441Z,27.31
2022-08-25T01:12:03.149Z,27.34
2022-08-25T01:17:06.221Z,26.70
2022-08-25T01:22:10.756Z,25.64
2022-08-25T01:27:13.918Z,26.57
2022-08-25T01:32:16.783Z,26.94
2022-08-25T01:37:20.797Z,27.06
2022-08-25T01:42:46.915Z,27.19
2022-08-25T01:47:49.806Z,27.26
2022-08-25T01:53:00.782Z,27.21
2022-08-25T01:58:03.878Z,25.50
2022-08-25T02:03:08.490Z,25.32
2022-08-25T02:08:23.451Z,26.14
2022-08-25T02:13:31.161Z,26.38
2022-08-25T02:18:34.718Z,26.39
2022-08-25T02:23:38.077Z,26.42
2022-08-25T02:28:41.256Z,26.51
2022-08-25T02:33:44.505Z,26.52
2022-08-25T02:38:47.482Z,26.45
2022-08-25T02:43:51.430Z,26.47
2022-08-25T02:48:54.335Z,26.47
2022-08-25T02:53:59.516Z,26.40
2022-08-25T02:59:03.027Z,26.45
2022-08-25T03:04:07.341Z,26.49
2022-08-25T03:09:10.349Z,26.62
2022-08-25T03:14:13.460Z,26.72
2022-08-25T03:19:16.858Z,26.08
2022-08-25T03:24:19.696Z,25.01
2022-08-25T03:29:32.644Z,25.85
2022-08-25T03:34:35.540Z,26.26
2022-08-25T03:39:38.348Z,26.39
2022-08-25T03:44:41.196Z,26.59
2022-08-25T03:49:44.014Z,26.54
2022-08-25T03:54:46.824Z,26.62
2022-08-25T03:59:49.638Z,26.59
2022-08-25T04:04:52.612Z,26.66
2022-08-25T04:09:58.455Z,26.91
2022-08-25T04:15:01.380Z,27.06
2022-08-25T04:20:05.704Z,27.32
2022-08-25T04:25:09.137Z,26.32
2022-08-25T04:30:12.758Z,25.42
2022-08-25T04:35:16.926Z,26.39
2022-08-25T04:40:20.576Z,26.77
2022-08-25T04:45:31.994Z,26.76
2022-08-25T04:50:39.123Z,26.81
2022-08-25T04:55:48.538Z,27.28
2022-08-25T05:00:51.317Z,27.56
2022-08-25T05:05:54.253Z,26.80
2022-08-25T05:10:57.583Z,26.19
2022-08-25T05:16:03.237Z,27.28
2022-08-25T05:21:14.019Z,27.72
2022-08-25T05:26:21.090Z,27.54
2022-08-25T05:31:26.207Z,25.96
2022-08-25T05:36:29.706Z,26.60
2022-08-25T05:41:33.602Z,27.11
2022-08-25T05:46:36.523Z,27.33
2022-08-25T05:51:39.393Z,27.44
2022-08-25T05:56:42.311Z,27.46
2022-08-25T06:02:03.760Z,26.97
2022-08-25T06:07:06.766Z,25.75
2022-08-25T06:12:09.748Z,26.75
2022-08-25T06:17:12.851Z,27.01
2022-08-25T06:22:15.871Z,26.95
2022-08-25T06:27:19.431Z,26.86
2022-08-25T06:32:22.370Z,27.01
2022-08-25T06:37:26.365Z,27.05
2022-08-25T06:42:29.220Z,27.23
2022-08-25T06:47:32.514Z,27.42
2022-08-25T06:52:35.809Z,27.56
2022-08-25T06:57:38.724Z,27.73
2022-08-25T07:02:42.566Z,27.98
2022-08-25T07:07:46.588Z,27.51
2022-08-25T07:12:49.774Z,26.62
2022-08-25T07:17:52.637Z,27.66
2022-08-25T07:22:55.522Z,28.01
2022-08-25T07:27:59.121Z,27.30
2022-08-25T07:33:05.908Z,26.39
2022-08-25T07:38:13.035Z,27.49
2022-08-25T07:43:22.582Z,27.91
2022-08-25T07:48:25.815Z,27.37
2022-08-25T07:53:28.650Z,26.00
2022-08-25T07:58:31.593Z,27.12
2022-08-25T08:03:50.099Z,27.99
2022-08-25T08:08:57.772Z,27.56
2022-08-25T08:14:03.587Z,26.97
2022-08-25T08:19:07.278Z,28.30
2022-08-25T08:24:31.214Z,28.03
2022-08-25T08:29:34.044Z,26.68
2022-08-25T08:34:38.217Z,27.30
2022-08-25T08:39:41.558Z,28.68
2022-08-25T08:44:58.092Z,28.76
2022-08-25T08:50:17.578Z,27.59
2022-08-25T08:55:32.715Z,28.73
2022-08-25T09:00:42.350Z,28.53
2022-08-25T09:05:59.277Z,28.05
2022-08-25T09:11:16.342Z,28.96
2022-08-25T09:22:35.587Z,28.31
2022-08-25T09:28:00.293Z,28.96
2022-08-25T09:33:05.120Z,29.21
2022-08-25T09:38:11.177Z,29.31
2022-08-25T09:43:32.245Z,29.22
2022-08-25T09:48:55.972Z,28.19
2022-08-25T09:54:10.788Z,29.34
2022-08-25T09:59:35.034Z,29.56
2022-08-25T10:04:42.732Z,28.26
2022-08-25T10:09:57.191Z,28.65
2022-08-25T10:15:00.680Z,30.02
2022-08-25T10:20:20.460Z,29.76
2022-08-25T10:25:30.117Z,28.78
2022-08-25T10:30:52.281Z,29.97
2022-08-25T10:36:08.266Z,30.17
2022-08-25T10:41:36.231Z,29.06
2022-08-25T10:46:50.313Z,30.24
2022-08-25T10:52:03.437Z,29.82
2022-08-25T10:57:28.749Z,29.47
2022-08-25T11:02:59.700Z,30.09
2022-08-25T11:08:09.157Z,29.30
2022-08-25T11:13:39.131Z,30.28
2022-08-25T11:19:07.064Z,29.62
2022-08-25T11:24:31.274Z,29.83
2022-08-25T11:29:39.469Z,30.33
2022-08-25T11:34:43.539Z,29.40
2022-08-25T11:40:35.268Z,29.38
2022-08-25T11:46:06.159Z,29.62
2022-08-25T11:51:48.335Z,29.04
2022-08-25T11:57:19.916Z,30.32
2022-08-25T12:02:35.806Z,29.15
2022-08-25T12:08:08.252Z,29.23
2022-08-25T12:13:50.731Z,29.81
2022-08-25T12:18:54.684Z,28.61
2022-08-25T12:24:13.827Z,29.14
2022-08-25T12:30:05.068Z,30.09
2022-08-25T12:35:53.507Z,29.07
2022-08-25T12:41:14.896Z,30.42
2022-08-25T12:46:21.287Z,30.02
2022-08-25T12:52:07.546Z,29.16
2022-08-25T12:57:19.249Z,30.51
2022-08-25T13:02:51.615Z,30.04
2022-08-25T13:08:33.728Z,29.19
2022-08-25T13:14:19.937Z,29.92
2022-08-25T13:19:25.372Z,29.90
2022-08-25T13:24:30.632Z,28.98
2022-08-25T13:29:53.905Z,29.61
2022-08-25T13:35:17.647Z,30.13
2022-08-25T13:40:34.563Z,29.07
2022-08-25T13:45:43.751Z,29.39
2022-08-25T13:50:51.875Z,30.36
2022-08-25T13:56:00.934Z,29.30
2022-08-25T14:01:22.758Z,28.61
2022-08-25T14:06:37.699Z,29.70
2022-08-25T14:11:56.666Z,30.45
2022-08-25T14:17:21.874Z,29.35
2022-08-25T14:22:38.477Z,28.86
2022-08-25T14:33:09.927Z,29.62
2022-08-25T14:38:12.892Z,29.02
2022-08-25T14:43:16.846Z,30.41
2022-08-25T14:48:25.634Z,30.77
2022-08-25T14:53:28.972Z,29.56
2022-08-25T14:58:34.002Z,29.75
2022-08-25T15:03:42.727Z,31.23
2022-08-25T15:09:08.689Z,30.33
2022-08-25T15:14:15.715Z,29.39
2022-08-25T15:19:27.173Z,30.04
2022-08-25T15:24:33.896Z,30.81
2022-08-25T15:29:41.043Z,29.76
2022-08-25T15:34:45.129Z,29.20
2022-08-25T15:39:50.153Z,29.74
2022-08-25T15:44:53.806Z,31.04
2022-08-25T15:50:25.758Z,30.07
2022-08-25T15:55:29.347Z,29.39
2022-08-25T16:00:32.392Z,28.99
2022-08-25T16:05:41.353Z,30.26
2022-08-25T16:10:51.196Z,29.69
2022-08-25T16:15:55.220Z,28.84
2022-08-25T16:20:58.179Z,29.88
2022-08-25T16:26:05.131Z,29.72
2022-08-25T16:31:16.876Z,29.14
2022-08-25T16:36:26.979Z,30.35
2022-08-25T16:41:34.361Z,29.24
2022-08-25T16:46:40.795Z,29.37
2022-08-25T16:51:44.486Z,30.06
2022-08-25T16:56:54.763Z,28.91
2022-08-25T17:01:58.240Z,29.76
2022-08-25T17:07:01.722Z,29.78
2022-08-25T17:12:05.588Z,28.46
2022-08-25T17:17:08.778Z,28.80
2022-08-25T17:22:15.893Z,29.82
2022-08-25T17:27:21.563Z,28.94
2022-08-25T17:32:28.737Z,28.58
2022-08-25T17:37:33.994Z,29.77
2022-08-25T17:42:37.676Z,29.46
2022-08-25T17:47:40.629Z,28.68
2022-08-25T17:52:43.551Z,29.53
2022-08-25T17:57:48.244Z,29.89
2022-08-25T18:02:51.315Z,29.44
2022-08-25T18:07:56.573Z,28.54
2022-08-25T18:13:03.350Z,29.49
2022-08-25T18:18:07.195Z,29.24
2022-08-25T18:23:10.195Z,28.16
2022-08-25T18:28:13.197Z,28.94
2022-08-25T18:33:19.267Z,29.28
2022-08-25T18:38:40.998Z,29.32
2022-08-25T18:43:46.019Z,29.22
2022-08-25T18:48:48.927Z,29.30
2022-08-25T18:53:59.179Z,29.44
2022-08-25T18:59:04.824Z,28.90
2022-08-25T19:04:09.749Z,27.91
2022-08-25T19:09:12.619Z,28.73
2022-08-25T19:14:16.195Z,29.13
2022-08-25T19:19:21.276Z,29.32
2022-08-25T19:24:24.627Z,28.76
2022-08-25T19:29:30.446Z,27.67
2022-08-25T19:34:39.711Z,28.61
2022-08-25T19:39:52.962Z,29.04
2022-08-25T19:44:56.314Z,28.58
2022-08-25T19:49:59.444Z,27.73
2022-08-25T19:55:03.413Z,28.69
2022-08-25T20:00:12.090Z,29.10
2022-08-25T20:05:23.876Z,29.26
2022-08-25T20:10:31.851Z,28.68
2022-08-25T20:15:39.355Z,27.71
2022-08-25T20:20:43.044Z,28.55
2022-08-25T20:25:48.205Z,28.91
2022-08-25T20:30:53.198Z,29.08
2022-08-25T20:35:56.577Z,28.58
2022-08-25T20:41:01.697Z,27.61
2022-08-25T20:46:07.920Z,28.46
2022-08-25T20:51:11.902Z,28.83
2022-08-25T20:56:17.833Z,29.02
2022-08-25T21:01:37.850Z,29.09
2022-08-25T21:06:45.624Z,29.10
2022-08-25T21:11:50.409Z,29.14
2022-08-25T21:16:56.293Z,28.52
2022-08-25T21:22:00.497Z,27.39
2022-08-25T21:27:04.633Z,28.18
2022-08-25T21:32:07.672Z,28.46
2022-08-25T21:37:11.555Z,28.57
2022-08-25T21:42:14.444Z,28.74
2022-08-25T21:47:21.696Z,28.85
2022-08-25T21:52:26.231Z,28.85
2022-08-25T21:57:29.442Z,28.79
2022-08-25T22:02:32.249Z,28.87
2022-08-25T22:07:39.159Z,29.03
2022-08-25T22:12:46.394Z,28.48
2022-08-25T22:17:49.636Z,27.03
2022-08-25T22:22:52.931Z,27.86
2022-08-25T22:27:57.220Z,28.27
2022-08-25T22:33:01.526Z,28.30
2022-08-25T22:38:06.329Z,28.37
2022-08-25T22:43:09.419Z,28.42
2022-08-25T22:48:14.835Z,28.50
2022-08-25T22:53:18.593Z,28.61
2022-08-25T22:58:21.826Z,28.07
2022-08-25T23:03:27.049Z,26.70
2022-08-25T23:08:39.110Z,27.54
2022-08-25T23:13:44.307Z,27.96
2022-08-25T23:18:47.157Z,28.11
2022-08-25T23:23:50.018Z,28.22
2022-08-25T23:28:53.620Z,28.24
2022-08-25T23:33:57.411Z,28.21
2022-08-25T23:39:00.698Z,28.21
2022-08-25T23:44:05.780Z,28.25
2022-08-25T23:49:09.412Z,28.22
2022-08-25T23:54:12.543Z,28.15
2022-08-25T23:59:15.508Z,28.11
